Time;durP1;ratioP1;P1;durP2;ratioP2;P2;SDS_P1;SDS_P2;PMS_P1;PMS_P2;Temp;Humidity;BMP_temperature;BMP_pressure;BME280_temperature;BME280_humidity;BME280_pressure;Samples;Min_cycle;Max_cycle;Signal;HPM_P1;HPM_P2
2022/04/26 03:36:40;;;;;;;19.33;8.40;;;4.70;1.00;;;;;;5085031;28;20063;-28
2022/04/26 03:39:06;;;;;;;18.85;9.23;;;4.90;1.00;;;;;;5076060;28;20048;-28
2022/04/26 03:41:33;;;;;;;17.48;8.43;;;4.60;1.00;;;;;;5091483;28;20067;-28
2022/04/26 03:43:59;;;;;;;19.40;8.35;;;4.20;99.90;;;;;;5082755;28;20474;-28
2022/04/26 03:46:25;;;;;;;20.40;8.13;;;4.20;99.90;;;;;;5087745;28;20382;-28
2022/04/26 03:48:51;;;;;;;26.30;8.55;;;4.40;99.90;;;;;;5079073;28;20040;-28
2022/04/26 03:51:16;;;;;;;18.55;8.02;;;4.00;99.90;;;;;;5085517;28;20504;-28
2022/04/26 03:53:42;;;;;;;21.33;9.02;;;4.00;99.90;;;;;;5085456;28;20051;-28
2022/04/26 03:56:08;;;;;;;16.10;8.20;;;3.80;99.90;;;;;;5073251;28;20040;-27
2022/04/26 03:58:34;;;;;;;20.77;9.20;;;3.70;99.90;;;;;;5090071;28;20044;-27
2022/04/26 04:01:00;;;;;;;17.23;7.55;;;3.60;99.90;;;;;;5087143;28;20127;-27
2022/04/26 04:03:26;;;;;;;22.67;8.45;;;3.50;99.90;;;;;;5094549;28;20128;-27
2022/04/26 04:05:52;;;;;;;19.27;9.18;;;3.40;99.90;;;;;;5078951;28;20068;-27
2022/04/26 04:08:18;;;;;;;26.27;10.68;;;3.30;99.90;;;;;;5081017;28;20087;-28
2022/04/26 04:10:45;;;;;;;22.65;10.63;;;3.60;99.90;;;;;;5062695;28;20052;-28
2022/04/26 04:13:11;;;;;;;19.90;9.30;;;3.70;99.90;;;;;;5054090;28;20070;-28
2022/04/26 04:15:37;;;;;;;24.47;9.47;;;3.60;99.90;;;;;;5064831;28;20478;-28
2022/04/26 04:18:03;;;;;;;26.42;11.27;;;3.70;99.90;;;;;;5094871;28;20052;-27
2022/04/26 04:20:29;;;;;;;30.33;12.97;;;3.50;99.90;;;;;;5093668;28;20047;-27
2022/04/26 04:22:56;;;;;;;30.70;13.33;;;3.90;99.90;;;;;;5077026;28;20036;-28
2022/04/26 04:25:22;;;;;;;26.80;12.77;;;4.10;1.00;;;;;;5084896;28;20132;-27
2022/04/26 04:27:48;;;;;;;26.23;13.32;;;4.00;1.00;;;;;;5089578;28;20055;-28
2022/04/26 04:30:14;;;;;;;22.27;12.30;;;4.60;1.00;;;;;;5086338;28;20093;-28
2022/04/26 04:32:40;;;;;;;23.05;11.57;;;4.80;1.00;;;;;;5093602;28;20438;-28
2022/04/26 04:35:06;;;;;;;30.55;11.70;;;4.70;1.00;;;;;;5090722;28;20079;-28
2022/04/26 04:37:32;;;;;;;21.52;11.70;;;4.70;1.00;;;;;;5072131;28;20059;-28
2022/04/26 04:39:58;;;;;;;32.65;13.27;;;4.90;1.00;;;;;;5093972;28;20040;-28
2022/04/26 04:42:24;;;;;;;24.30;10.57;;;4.70;13.20;;;;;;5094077;28;20052;-28
2022/04/26 04:44:49;;;;;;;27.00;9.70;;;5.00;16.50;;;;;;5088669;28;20040;-28
2022/04/26 04:47:15;;;;;;;23.40;10.15;;;5.40;35.40;;;;;;5089357;28;20052;-28
2022/04/26 04:49:41;;;;;;;30.52;9.80;;;5.00;19.00;;;;;;5073376;28;20383;-28
2022/04/26 04:52:07;;;;;;;16.73;8.65;;;5.30;8.80;;;;;;5072195;28;20055;-27
2022/04/26 04:54:32;;;;;;;18.88;9.00;;;5.40;13.30;;;;;;5074336;28;20040;-28
2022/04/26 04:56:58;;;;;;;21.20;8.35;;;5.30;50.90;;;;;;5079670;28;20040;-27
2022/04/26 04:59:24;;;;;;;24.02;8.98;;;5.30;37.40;;;;;;5072964;28;20125;-28
2022/04/26 05:01:49;;;;;;;14.48;7.78;;;5.40;21.90;;;;;;5053194;28;20165;-28
2022/04/26 05:04:15;;;;;;;18.95;8.40;;;5.50;17.20;;;;;;5093721;28;20494;-28
2022/04/26 05:06:41;;;;;;;18.77;8.45;;;5.70;18.20;;;;;;5074123;28;20040;-27
2022/04/26 05:09:07;;;;;;;19.23;8.35;;;5.80;52.70;;;;;;5078606;28;20074;-28
2022/04/26 05:11:33;;;;;;;23.15;7.97;;;5.80;27.30;;;;;;5080554;28;20048;-28
2022/04/26 05:13:58;;;;;;;17.88;7.10;;;5.80;11.60;;;;;;5076677;28;20032;-28
2022/04/26 05:16:24;;;;;;;12.63;6.85;;;5.80;31.60;;;;;;5078342;28;20044;-28
2022/04/26 05:18:50;;;;;;;13.63;6.50;;;5.90;27.20;;;;;;5078826;28;20452;-27
2022/04/26 05:21:16;;;;;;;14.85;6.85;;;6.20;11.90;;;;;;5084460;28;20072;-28
2022/04/26 05:26:26;;;;;;;17.13;5.68;;;6.40;1.00;;;;;;5080853;28;20084;-29
2022/04/26 05:28:52;;;;;;;13.50;5.68;;;6.20;1.00;;;;;;5077732;28;20044;-28
2022/04/26 05:31:18;;;;;;;15.65;6.00;;;6.50;1.00;;;;;;5078120;28;20052;-28
2022/04/26 05:33:43;;;;;;;13.55;4.85;;;6.60;1.00;;;;;;5087396;28;20043;-27
2022/04/26 05:36:09;;;;;;;9.70;4.57;;;6.60;1.00;;;;;;5081219;28;20123;-28
2022/04/26 05:38:35;;;;;;;12.38;4.57;;;6.60;1.00;;;;;;5095093;28;20048;-28
2022/04/26 05:41:01;;;;;;;12.98;4.88;;;6.60;1.00;;;;;;5082896;28;20040;-27
2022/04/26 05:43:27;;;;;;;10.63;4.03;;;6.80;1.00;;;;;;5088350;28;20036;-28
2022/04/26 05:45:53;;;;;;;13.23;4.28;;;7.00;99.90;;;;;;5076961;28;20056;-28
2022/04/26 05:48:19;;;;;;;12.73;4.28;;;7.00;99.90;;;;;;5091968;28;20387;-28
2022/04/26 05:50:45;;;;;;;15.90;4.53;;;6.90;99.90;;;;;;5085384;28;20048;-28
2022/04/26 05:53:11;;;;;;;10.80;4.00;;;7.10;99.90;;;;;;5077315;28;20128;-28
2022/04/26 05:55:38;;;;;;;8.60;4.00;;;7.10;99.90;;;;;;5075439;28;20056;-28
2022/04/26 05:58:05;;;;;;;12.90;4.35;;;7.30;99.90;;;;;;5076065;28;20045;-28
2022/04/26 06:00:31;;;;;;;8.82;3.67;;;7.10;99.90;;;;;;5073654;28;20041;-28
2022/04/26 06:02:56;;;;;;;12.57;4.00;;;7.40;99.90;;;;;;5077810;28;20101;-28
2022/04/26 06:05:22;;;;;;;10.43;3.95;;;7.30;99.90;;;;;;5077515;28;20478;-29
2022/04/26 06:07:49;;;;;;;12.85;3.58;;;7.30;79.50;;;;;;5091765;28;20056;-28
2022/04/26 06:10:15;;;;;;;10.82;3.20;;;7.40;39.80;;;;;;5092500;28;20459;-28
2022/04/26 06:12:44;;;;;;;9.68;4.35;;;7.50;10.80;;;;;;5080084;28;20058;-28
2022/04/26 06:15:10;;;;;;;11.70;4.13;;;7.80;1.00;;;;;;5096373;28;20431;-28
2022/04/26 06:17:36;;;;;;;10.73;3.40;;;7.80;1.00;;;;;;5095340;28;20067;-28
2022/04/26 06:20:03;;;;;;;10.23;3.58;;;7.90;1.00;;;;;;5075120;28;20442;-28
2022/04/26 06:22:28;;;;;;;13.38;4.88;;;8.00;99.90;;;;;;5083235;28;20049;-28
2022/04/26 06:24:54;;;;;;;11.63;3.88;;;8.10;99.90;;;;;;5092901;28;20136;-27
2022/04/26 06:27:21;;;;;;;9.20;3.40;;;8.40;99.90;;;;;;5094230;28;20405;-28
2022/04/26 06:29:46;;;;;;;9.82;3.35;;;8.20;99.90;;;;;;5093917;28;20047;-28
2022/04/26 06:32:12;;;;;;;6.95;2.75;;;8.40;99.90;;;;;;5088238;28;20049;-28
2022/04/26 06:34:38;;;;;;;10.63;3.15;;;8.30;99.90;;;;;;5075711;28;20047;-28
2022/04/26 06:37:04;;;;;;;6.50;3.10;;;8.30;55.80;;;;;;5076038;28;20125;-28
2022/04/26 06:39:29;;;;;;;9.25;3.03;;;8.30;63.40;;;;;;5075987;28;20132;-28
2022/04/26 06:41:55;;;;;;;9.90;2.92;;;8.40;88.10;;;;;;5092226;28;20481;-28
2022/04/26 06:44:21;;;;;;;11.65;3.75;;;8.60;99.90;;;;;;5089548;28;20043;-29
2022/04/26 06:46:46;;;;;;;11.98;4.20;;;8.80;99.90;;;;;;5077395;28;20110;-28
2022/04/26 06:49:12;;;;;;;14.60;3.58;;;8.90;26.90;;;;;;5076371;28;20040;-28
2022/04/26 06:51:42;;;;;;;8.93;3.33;;;9.30;1.00;;;;;;5079870;28;20178;-28
2022/04/26 06:54:08;;;;;;;11.00;3.47;;;9.50;1.00;;;;;;5075531;28;20083;-28
2022/04/26 06:56:34;;;;;;;11.15;3.58;;;9.10;99.90;;;;;;5074410;28;20141;-28
2022/04/26 06:58:59;;;;;;;8.82;3.40;;;9.00;99.90;;;;;;5057659;28;20186;-27
2022/04/26 07:01:25;;;;;;;12.85;2.90;;;9.00;99.90;;;;;;5074397;28;20037;-28
2022/04/26 07:03:51;;;;;;;11.82;3.30;;;8.80;99.90;;;;;;5075376;28;20051;-29
2022/04/26 07:06:17;;;;;;;10.63;3.17;;;8.80;99.90;;;;;;5075656;28;20042;-28
2022/04/26 07:08:43;;;;;;;10.57;3.40;;;8.80;99.90;;;;;;5075722;28;20044;-27
2022/04/26 07:11:08;;;;;;;8.10;3.08;;;9.00;99.90;;;;;;5041062;28;20048;-28
2022/04/26 07:13:34;;;;;;;7.55;3.17;;;9.00;99.90;;;;;;5075806;28;20044;-28
2022/04/26 07:16:00;;;;;;;7.30;2.78;;;9.10;99.90;;;;;;5076108;28;20045;-28
2022/04/26 07:18:26;;;;;;;10.32;2.88;;;9.00;99.90;;;;;;5074315;28;20040;-28
2022/04/26 07:20:52;;;;;;;9.15;2.42;;;9.00;99.90;;;;;;5077630;28;20044;-28
2022/04/26 07:23:18;;;;;;;8.80;3.20;;;9.10;99.90;;;;;;5072983;28;20049;-29
2022/04/26 07:25:44;;;;;;;6.40;2.95;;;9.10;99.90;;;;;;5073872;28;20056;-28
2022/04/26 07:28:10;;;;;;;9.30;3.97;;;9.20;99.90;;;;;;5074469;28;20398;-28
2022/04/26 07:30:36;;;;;;;5.70;2.92;;;9.20;99.90;;;;;;5091303;28;20069;-28
2022/04/26 07:35:53;;;;;;;7.32;2.83;;;9.00;99.90;;;;;;5071144;28;20401;-28
2022/04/26 07:38:20;;;;;;;11.05;2.35;;;8.90;99.90;;;;;;5089533;28;20040;-28
2022/04/26 07:40:46;;;;;;;11.18;2.90;;;9.00;99.90;;;;;;5085570;28;20559;-28
2022/04/26 07:43:13;;;;;;;9.15;2.15;;;9.30;99.90;;;;;;5073429;28;20104;-28
2022/04/26 07:45:40;;;;;;;6.85;2.40;;;9.60;99.90;;;;;;5077163;28;20093;-28
2022/04/26 07:48:07;;;;;;;8.02;2.97;;;9.90;99.90;;;;;;5083445;28;20071;-28
2022/04/26 07:50:34;;;;;;;11.32;3.38;;;9.90;99.90;;;;;;5084502;28;20047;-28
2022/04/26 07:53:02;;;;;;;10.63;2.30;;;10.00;99.90;;;;;;5094154;28;20099;-28
2022/04/26 07:55:29;;;;;;;8.20;2.38;;;10.10;95.20;;;;;;5084818;28;20052;-28
2022/04/26 07:57:55;;;;;;;10.35;2.13;;;10.30;99.90;;;;;;5095004;28;20044;-28
2022/04/26 08:00:21;;;;;;;5.88;2.30;;;10.60;82.20;;;;;;5090468;28;20123;-28
2022/04/26 08:02:46;;;;;;;8.32;2.53;;;10.60;1.00;;;;;;5093438;28;20051;-28
2022/04/26 08:05:14;;;;;;;13.18;2.45;;;10.80;1.00;;;;;;5080319;28;20056;-28
2022/04/26 08:07:41;;;;;;;3.78;2.30;;;10.70;1.00;;;;;;5076119;28;20051;-28
2022/04/26 08:10:12;;;;;;;4.03;1.83;;;10.70;1.00;;;;;;5073210;28;20055;-28
2022/04/26 08:12:39;;;;;;;5.55;2.22;;;10.60;1.00;;;;;;5074580;28;20049;-28
2022/04/26 08:15:06;;;;;;;5.85;1.70;;;10.90;1.00;;;;;;5069384;28;20048;-28
2022/04/26 08:17:32;;;;;;;5.35;1.75;;;11.10;1.00;;;;;;5090696;28;20134;-28
2022/04/26 08:19:57;;;;;;;4.78;1.88;;;11.10;1.00;;;;;;5094350;28;20102;-28
2022/04/26 08:22:23;;;;;;;9.63;1.95;;;11.10;1.00;;;;;;5086798;28;20055;-28
2022/04/26 08:27:33;;;;;;;9.45;2.33;;;10.90;1.00;;;;;;5064065;28;20143;-28
2022/04/26 08:30:03;;;;;;;5.28;1.70;;;10.70;1.00;;;;;;5081283;28;20123;-28
2022/04/26 08:32:41;;;;;;;4.40;1.70;;;10.50;1.00;;;;;;5094006;28;20047;-28
2022/04/26 08:35:10;;;;;;;7.93;1.75;;;10.30;1.00;;;;;;5082178;28;20044;-28
2022/04/26 08:37:37;;;;;;;6.03;1.85;;;10.10;1.00;;;;;;5076764;28;20563;-28
2022/04/26 08:40:05;;;;;;;7.75;2.47;;;10.40;1.00;;;;;;5071542;28;20040;-28
2022/04/26 08:42:52;;;;;;;7.22;2.10;;;10.80;1.00;;;;;;5071001;28;20066;-28
2022/04/26 08:45:20;;;;;;;5.55;1.77;;;10.90;99.90;;;;;;5094457;28;20048;-28
2022/04/26 08:53:22;;;;;;;5.40;2.05;;;11.30;1.00;;;;;;5093929;28;20087;-27
2022/04/26 08:55:51;;;;;;;5.22;2.40;;;11.50;99.90;;;;;;5086597;28;20056;-27
2022/04/26 08:58:21;;;;;;;8.05;2.25;;;11.50;1.00;;;;;;5077180;28;20057;-27
2022/04/26 09:01:05;;;;;;;5.85;1.98;;;11.40;1.00;;;;;;5090619;28;20051;-28
2022/04/26 09:03:36;;;;;;;7.72;1.92;;;12.10;1.00;;;;;;5087951;28;20044;-27
2022/04/26 09:06:15;;;;;;;8.90;2.33;;;13.00;1.00;;;;;;5094657;28;20040;-27
2022/04/26 09:08:43;;;;;;;5.13;1.52;;;12.90;99.90;;;;;;5091968;28;20048;-27
2022/04/26 09:11:27;;;;;;;7.20;1.85;;;13.10;1.00;;;;;;5089227;28;20051;-27
2022/04/26 09:13:54;;;;;;;7.00;2.30;;;13.10;99.90;;;;;;5093651;28;20052;-27
2022/04/26 09:16:22;;;;;;;4.75;1.60;;;13.20;99.90;;;;;;5087101;28;20052;-27
2022/04/26 09:19:06;;;;;;;6.72;2.33;;;12.90;99.90;;;;;;5092427;28;20085;-27
2022/04/26 09:21:33;;;;;;;5.55;2.08;;;12.40;99.90;;;;;;5091290;28;20044;-27
2022/04/26 09:24:04;;;;;;;6.82;1.90;;;11.80;99.90;;;;;;5094081;28;20048;-27
2022/04/26 09:26:38;;;;;;;6.63;2.03;;;11.60;99.90;;;;;;5093541;28;20048;-27
2022/04/26 09:29:05;;;;;;;8.32;2.13;;;12.50;99.90;;;;;;5091467;28;20467;-28
2022/04/26 09:31:37;;;;;;;5.40;1.80;;;13.70;99.90;;;;;;5073850;28;20048;-27
2022/04/26 09:34:10;;;;;;;5.28;1.65;;;14.10;99.90;;;;;;5073108;28;20044;-27
2022/04/26 09:36:43;;;;;;;;;;;13.50;99.90;;;;;;5072524;28;20053;-27
2022/04/26 09:39:09;;;;;;;10.55;2.00;;;12.70;99.90;;;;;;5083397;28;19972;-27
2022/04/26 09:41:36;;;;;;;8.48;2.35;;;13.70;99.90;;;;;;5094177;28;20439;-28
2022/04/26 09:44:07;;;;;;;3.13;1.58;;;14.10;99.90;;;;;;5069845;28;20482;-30
2022/04/26 09:46:45;;;;;;;7.53;2.35;;;14.90;78.80;;;;;;5085464;28;20059;-29
2022/04/26 09:49:14;;;;;;;8.48;1.90;;;14.80;58.70;;;;;;5087286;28;20055;-27
2022/04/26 09:51:41;;;;;;;5.45;1.70;;;15.40;99.90;;;;;;5070761;28;20045;-27
2022/04/26 09:54:07;;;;;;;6.28;1.92;;;15.50;99.90;;;;;;5091987;28;20063;-27
2022/04/26 09:56:34;;;;;;;6.45;2.60;;;14.70;99.90;;;;;;5084757;28;20525;-28
2022/04/26 09:59:02;;;;;;;5.63;1.50;;;14.30;99.90;;;;;;5091959;28;20055;-28
2022/04/26 10:01:35;;;;;;;7.63;1.52;;;14.50;99.90;;;;;;5078121;28;20040;-27
2022/04/26 10:04:06;;;;;;;6.93;2.10;;;15.10;74.60;;;;;;5096876;28;20488;-27
2022/04/26 10:06:35;;;;;;;3.58;1.88;;;15.60;22.00;;;;;;5055687;28;20044;-28
2022/04/26 10:09:02;;;;;;;4.35;1.83;;;15.10;1.00;;;;;;5068996;28;20118;-27
2022/04/26 10:11:28;;;;;;;5.60;1.92;;;15.00;1.00;;;;;;5088491;28;20410;-28
2022/04/26 10:13:55;;;;;;;5.05;1.92;;;14.90;1.00;;;;;;5059509;28;20402;-27
2022/04/26 10:16:22;;;;;;;5.28;1.85;;;15.10;10.50;;;;;;5083532;28;20045;-27
2022/04/26 10:18:48;;;;;;;7.50;2.00;;;15.00;12.30;;;;;;5080064;28;20048;-29
2022/04/26 10:21:23;;;;;;;5.90;2.28;;;15.40;1.00;;;;;;5084544;28;20061;-27
2022/04/26 10:23:51;;;;;;;5.47;1.90;;;15.80;1.00;;;;;;5096501;28;20047;-27
2022/04/26 10:26:23;;;;;;;5.88;2.33;;;15.20;1.00;;;;;;5076289;28;20094;-28
2022/04/26 10:29:13;;;;;;;4.78;2.00;;;14.80;1.00;;;;;;5076213;28;20044;-28
2022/04/26 10:31:43;;;;;;;5.45;1.63;;;15.30;1.00;;;;;;5087532;28;20144;-28
2022/04/26 10:34:14;;;;;;;5.45;2.10;;;15.00;1.00;;;;;;5081884;28;20394;-27
2022/04/26 10:36:40;;;;;;;7.28;2.42;;;15.10;1.00;;;;;;5083153;28;20398;-28
2022/04/26 10:39:07;;;;;;;8.60;2.20;;;16.00;1.00;;;;;;5096211;28;20048;-27
2022/04/26 10:41:39;;;;;;;7.35;2.00;;;16.80;1.00;;;;;;5081576;28;20097;-28
2022/04/26 10:44:14;;;;;;;5.28;1.95;;;16.60;1.00;;;;;;5088006;28;20122;-28
2022/04/26 10:46:50;;;;;;;6.30;1.77;;;16.20;1.00;;;;;;5075420;28;20054;-28
2022/04/26 10:49:25;;;;;;;6.85;2.03;;;15.20;1.00;;;;;;5074707;28;20401;-28
2022/04/26 10:51:52;;;;;;;3.97;1.98;;;15.10;1.00;;;;;;5090104;28;20079;-28
2022/04/26 10:54:48;;;;;;;4.32;1.75;;;14.70;1.00;;;;;;5068885;28;20052;-28
2022/04/26 10:57:19;;;;;;;5.45;2.05;;;15.20;1.00;;;;;;5077504;28;20060;-28
2022/04/26 10:59:56;;;;;;;4.03;1.70;;;16.10;1.00;;;;;;5078653;28;20173;-29
2022/04/26 11:02:25;;;;;;;5.40;1.80;;;15.90;1.00;;;;;;5081730;28;20044;-28
2022/04/26 11:04:59;;;;;;;7.85;2.22;;;15.60;1.00;;;;;;5075552;28;20052;-28
2022/04/26 11:07:26;;;;;;;6.93;2.30;;;15.40;1.00;;;;;;5085063;28;20036;-29
2022/04/26 11:09:54;;;;;;;5.50;2.17;;;15.70;1.00;;;;;;5096514;28;20048;-28
2022/04/26 11:12:25;;;;;;;5.93;2.00;;;16.60;1.00;;;;;;5092534;28;20050;-28
2022/04/26 11:14:54;;;;;;;3.90;2.00;;;17.00;1.00;;;;;;5078396;28;20106;-30
2022/04/26 11:17:24;;;;;;;6.90;2.25;;;16.20;1.00;;;;;;5066439;28;20083;-29
2022/04/26 11:19:50;;;;;;;4.75;2.08;;;15.10;1.00;;;;;;5081767;28;20501;-29
2022/04/26 11:22:18;;;;;;;7.20;1.70;;;14.90;1.00;;;;;;5095120;28;20489;-28
2022/04/26 11:30:24;;;;;;;5.63;2.30;;;15.50;1.00;;;;;;5082856;28;20491;-29
2022/04/26 11:32:50;;;;;;;4.35;1.77;;;15.60;1.00;;;;;;5080333;28;20045;-28
2022/04/26 11:35:17;;;;;;;4.18;2.13;;;15.40;1.00;;;;;;5074072;28;20052;-28
2022/04/26 11:37:47;;;;;;;6.00;2.08;;;15.20;1.00;;;;;;5095166;28;20083;-28
2022/04/26 11:40:33;;;;;;;4.47;1.85;;;15.70;1.00;;;;;;5095073;28;20132;-28
2022/04/26 11:43:10;;;;;;;4.28;1.67;;;16.00;99.90;;;;;;5074341;28;20048;-28
2022/04/26 11:45:36;;;;;;;4.60;1.50;;;15.50;99.90;;;;;;5095030;28;20040;-29
2022/04/26 11:48:03;;;;;;;6.55;1.90;;;15.30;99.90;;;;;;5091522;28;20394;-28
2022/04/26 11:50:30;;;;;;;6.38;1.73;;;15.70;1.00;;;;;;5061950;28;20040;-28
2022/04/26 11:53:08;;;;;;;5.63;1.58;;;16.30;99.90;;;;;;5076013;28;20110;-28
2022/04/26 11:55:39;;;;;;;6.68;2.30;;;16.90;99.90;;;;;;5081251;28;20048;-28
2022/04/26 11:58:22;;;;;;;6.25;2.20;;;16.70;99.90;;;;;;5073183;28;20041;-28
2022/04/26 12:00:52;;;;;;;4.55;1.75;;;16.40;99.90;;;;;;5076669;28;20080;-30
2022/04/26 12:03:19;;;;;;;7.22;1.70;;;16.30;99.90;;;;;;5088543;28;20141;-27
2022/04/26 12:05:49;;;;;;;6.13;1.48;;;16.50;99.90;;;;;;5074314;28;20044;-28
2022/04/26 12:08:16;;;;;;;3.10;1.85;;;16.90;99.90;;;;;;5074265;28;20123;-28
2022/04/26 12:10:41;;;;;;;18.00;3.83;;;16.90;99.90;;;;;;5074807;28;20052;-28
2022/04/26 12:13:07;;;;;;;9.18;2.63;;;16.20;99.90;;;;;;5092049;28;20055;-28
2022/04/26 12:15:40;;;;;;;7.20;1.85;;;15.80;99.90;;;;;;5091708;28;20058;-28
2022/04/26 12:18:14;;;;;;;3.67;1.52;;;15.90;99.90;;;;;;5089622;28;20132;-28
2022/04/26 12:20:59;;;;;;;7.07;1.73;;;16.20;99.90;;;;;;5083291;28;20053;-28
2022/04/26 12:23:26;;;;;;;6.55;1.92;;;16.20;99.90;;;;;;5088441;28;20393;-30
2022/04/26 12:26:02;;;;;;;5.63;2.20;;;16.50;99.90;;;;;;5091183;28;20044;-28
2022/04/26 12:28:29;;;;;;;3.88;1.50;;;17.10;99.90;;;;;;5088345;28;20127;-28
2022/04/26 12:30:55;;;;;;;5.10;1.73;;;17.10;99.90;;;;;;5087016;28;20088;-28
2022/04/26 12:33:34;;;;;;;5.45;1.95;;;16.30;99.90;;;;;;5073838;28;20134;-29
2022/04/26 12:36:02;;;;;;;4.57;1.77;;;15.60;99.90;;;;;;5076116;28;20136;-28
2022/04/26 12:38:28;;;;;;;4.85;1.63;;;16.00;99.90;;;;;;5079742;28;20405;-29
2022/04/26 12:41:05;;;;;;;5.15;2.22;;;15.50;99.90;;;;;;5075390;28;20110;-28
2022/04/26 12:43:32;;;;;;;5.57;1.77;;;15.30;99.90;;;;;;5086575;28;20040;-28
2022/04/26 12:46:03;;;;;;;5.47;1.58;;;15.10;99.90;;;;;;5093925;28;20528;-28
2022/04/26 13:00:59;;;;;;;5.43;2.30;;;14.60;1.00;;;;;;5103717;27;20392;-27
2022/04/26 13:03:25;;;;;;;9.02;3.20;;;15.90;99.90;;;;;;5070755;28;20406;-28
2022/04/26 13:05:54;;;;;;;6.70;2.63;;;14.60;99.90;;;;;;5070560;28;20044;-27
2022/04/26 13:08:21;;;;;;;8.05;2.95;;;14.00;1.00;;;;;;5071131;28;20049;-27
2022/04/26 13:10:48;;;;;;;7.55;2.80;;;14.20;1.00;;;;;;5070630;28;20056;-27
2022/04/26 13:13:14;;;;;;;6.43;2.30;;;14.60;1.00;;;;;;5070256;28;20399;-27
2022/04/26 13:15:41;;;;;;;9.00;2.05;;;14.50;1.00;;;;;;5070512;28;20052;-27
2022/04/26 13:18:08;;;;;;;6.00;2.35;;;14.20;1.00;;;;;;5069543;28;20514;-27
2022/04/26 13:20:34;;;;;;;4.95;1.98;;;14.10;1.00;;;;;;5069731;28;20071;-28
2022/04/26 13:23:00;;;;;;;6.32;3.15;;;13.80;1.00;;;;;;5070901;28;20049;-27
2022/04/26 13:25:26;;;;;;;7.10;2.30;;;13.60;1.00;;;;;;5072334;28;20049;-27
2022/04/26 13:27:52;;;;;;;6.50;2.33;;;13.20;1.00;;;;;;5069266;28;20048;-27
2022/04/26 13:30:18;;;;;;;5.93;2.30;;;13.40;1.00;;;;;;5066358;28;20051;-27
2022/04/26 13:32:45;;;;;;;6.38;2.10;;;13.60;1.00;;;;;;5049032;28;20120;-28
2022/04/26 13:35:11;;;;;;;6.18;2.20;;;14.20;1.00;;;;;;5055771;28;20052;-28
2022/04/26 13:37:38;;;;;;;6.53;2.55;;;14.60;1.00;;;;;;5068939;28;20091;-27
2022/04/26 13:40:07;;;;;;;5.07;2.30;;;14.30;1.00;;;;;;5070581;28;20049;-27
2022/04/26 13:42:35;;;;;;;4.90;2.30;;;13.60;1.00;;;;;;5072404;28;20052;-27
2022/04/26 13:45:01;;;;;;;7.05;2.55;;;13.70;1.00;;;;;;5085530;28;20075;-27
2022/04/26 13:47:28;;;;;;;12.88;2.25;;;13.70;1.00;;;;;;5077307;28;20046;-28
2022/04/26 13:49:53;;;;;;;3.55;1.90;;;13.70;1.00;;;;;;5048583;28;20064;-27
2022/04/26 13:52:20;;;;;;;5.75;2.08;;;13.40;1.00;;;;;;5052332;28;20048;-28
2022/04/26 13:54:47;;;;;;;7.15;2.05;;;13.50;1.00;;;;;;5052140;28;20182;-27
2022/04/26 13:57:13;;;;;;;9.18;2.17;;;13.80;1.00;;;;;;5064970;28;20115;-27
2022/04/26 13:59:39;;;;;;;4.18;1.77;;;14.10;1.00;;;;;;5068865;28;20053;-27
2022/04/26 14:02:06;;;;;;;4.75;1.88;;;13.70;1.00;;;;;;5055500;28;20049;-27
2022/04/26 14:04:32;;;;;;;3.47;1.70;;;13.40;1.00;;;;;;5048226;28;20081;-27
2022/04/26 14:06:58;;;;;;;8.23;2.30;;;12.70;1.00;;;;;;5036786;28;20092;-27
2022/04/26 14:09:23;;;;;;;9.63;2.30;;;12.30;1.00;;;;;;5036833;28;20132;-27
2022/04/26 14:11:51;;;;;;;4.78;2.22;;;12.20;1.00;;;;;;5047983;28;20045;-27
2022/04/26 14:22:32;;;;;;;10.40;2.85;;;12.90;1.00;;;;;;5035779;28;20057;-27
2022/04/26 14:25:04;;;;;;;3.63;2.10;;;13.20;1.00;;;;;;5036006;28;20061;-27
2022/04/26 14:27:33;;;;;;;10.02;2.53;;;13.00;1.00;;;;;;5045781;28;20502;-28
2022/04/26 14:29:59;;;;;;;3.95;2.17;;;12.70;1.00;;;;;;5055685;28;20458;-27
2022/04/26 14:32:25;;;;;;;7.43;2.38;;;12.50;1.00;;;;;;5050595;28;20607;-28
2022/04/26 14:34:51;;;;;;;5.13;2.08;;;12.50;1.00;;;;;;5039188;28;20135;-27
2022/04/26 14:37:17;;;;;;;8.32;2.45;;;12.30;1.00;;;;;;5034730;28;20094;-28
2022/04/26 14:39:43;;;;;;;6.07;2.13;;;12.30;1.00;;;;;;5036304;28;20044;-28
2022/04/26 14:42:09;;;;;;;3.63;1.83;;;12.00;1.00;;;;;;5038130;28;20049;-29
2022/04/26 14:44:36;;;;;;;6.78;2.13;;;12.00;1.00;;;;;;5039850;28;20052;-27
2022/04/26 14:47:02;;;;;;;7.65;2.08;;;11.90;5.10;;;;;;5037040;28;20076;-27
2022/04/26 14:49:29;;;;;;;4.97;1.70;;;11.80;1.00;;;;;;5040480;28;20065;-27
2022/04/26 14:51:55;;;;;;;5.75;2.00;;;12.00;1.00;;;;;;5027346;28;20107;-27
2022/04/26 14:54:21;;;;;;;4.68;1.80;;;12.10;1.00;;;;;;5038437;28;20480;-28
2022/04/26 14:56:48;;;;;;;6.70;1.58;;;12.20;1.00;;;;;;5046326;28;20120;-27
2022/04/26 14:59:17;;;;;;;6.57;2.50;;;12.30;1.00;;;;;;5034475;28;20569;-27
2022/04/26 15:01:49;;;;;;;7.75;2.33;;;12.20;1.00;;;;;;5038050;28;20056;-27
2022/04/26 15:04:19;;;;;;;5.55;2.10;;;12.30;1.00;;;;;;5055303;28;20116;-27
2022/04/26 15:06:46;;;;;;;5.90;1.80;;;12.60;1.00;;;;;;5039702;28;20044;-27
2022/04/26 15:17:28;;;;;;;10.40;3.40;;;13.00;1.00;;;;;;5049116;28;20053;-27
2022/04/26 15:19:54;;;;;;;7.65;2.30;;;12.90;1.00;;;;;;5051359;28;20116;-28
2022/04/26 15:22:20;;;;;;;6.15;2.58;;;12.80;1.00;;;;;;5033366;28;20056;-27
2022/04/26 15:24:50;;;;;;;5.18;1.95;;;12.60;1.00;;;;;;5046881;28;20048;-27
2022/04/26 15:27:16;;;;;;;9.13;2.00;;;12.50;1.00;;;;;;5025470;28;20048;-28
2022/04/26 15:29:43;;;;;;;8.35;2.53;;;12.40;1.00;;;;;;5047984;28;20052;-28
2022/04/26 15:32:09;;;;;;;11.25;2.25;;;12.50;1.00;;;;;;5041480;28;20111;-27
2022/04/26 15:34:35;;;;;;;7.47;1.90;;;12.50;1.00;;;;;;5052088;28;20068;-27
2022/04/26 15:37:01;;;;;;;6.85;2.85;;;12.30;1.00;;;;;;5033479;28;20049;-27
2022/04/26 15:39:28;;;;;;;10.52;2.60;;;12.40;1.00;;;;;;5034505;28;20400;-27
2022/04/26 15:41:54;;;;;;;9.00;2.35;;;12.30;1.00;;;;;;5061008;28;20055;-28
2022/04/26 15:44:20;;;;;;;6.57;2.47;;;12.30;1.00;;;;;;5038257;28;20048;-27
2022/04/26 15:46:47;;;;;;;5.10;2.63;;;12.20;1.00;;;;;;5054045;28;20060;-27
2022/04/26 15:49:13;;;;;;;6.35;1.92;;;12.10;1.00;;;;;;5053009;28;20088;-27
2022/04/26 15:51:41;;;;;;;6.28;2.15;;;12.00;1.00;;;;;;5052640;28;20096;-28
2022/04/26 15:54:07;;;;;;;7.72;2.25;;;12.00;1.00;;;;;;5035268;28;20042;-27
2022/04/26 15:56:33;;;;;;;9.02;2.42;;;11.90;10.60;;;;;;5034784;28;20056;-27
2022/04/26 15:59:00;;;;;;;6.15;2.08;;;12.00;4.10;;;;;;5034646;28;20069;-27
2022/04/26 16:01:26;;;;;;;7.97;2.38;;;11.90;1.00;;;;;;5035155;28;20557;-27
2022/04/26 16:03:53;;;;;;;6.57;1.85;;;11.90;1.00;;;;;;5050325;28;20076;-27
2022/04/26 16:06:21;;;;;;;7.07;2.33;;;11.90;1.00;;;;;;5052731;28;20068;-27
2022/04/26 16:08:47;;;;;;;5.75;2.15;;;11.90;1.00;;;;;;5052540;28;20131;-27
2022/04/26 16:22:10;;;;;;;4.95;1.77;;;12.00;1.00;;;;;;5046955;28;20057;-27
2022/04/26 16:24:38;;;;;;;7.32;2.42;;;12.00;1.00;;;;;;5052551;28;20052;-28
2022/04/26 16:27:05;;;;;;;6.45;2.13;;;11.90;1.00;;;;;;5052129;28;20052;-27
2022/04/26 16:29:31;;;;;;;5.63;2.35;;;11.60;1.00;;;;;;5048469;28;20048;-28
2022/04/26 16:31:57;;;;;;;6.45;1.90;;;11.60;1.00;;;;;;5052645;28;20056;-28
2022/04/26 16:34:23;;;;;;;5.65;1.65;;;11.40;1.00;;;;;;5052963;28;20094;-28
2022/04/26 16:36:49;;;;;;;5.50;1.92;;;11.30;1.00;;;;;;5051715;28;20051;-29
2022/04/26 16:39:14;;;;;;;7.30;1.45;;;11.20;1.00;;;;;;5032088;28;20107;-27
2022/04/26 16:41:40;;;;;;;5.50;1.73;;;11.10;1.00;;;;;;5041990;28;20045;-27
2022/04/26 16:44:07;;;;;;;6.72;1.63;;;11.00;1.00;;;;;;5036675;28;20080;-27
2022/04/26 16:46:35;;;;;;;5.53;2.05;;;10.90;35.80;;;;;;5036995;28;20490;-28
2022/04/26 16:49:04;;;;;;;3.88;1.50;;;10.90;61.30;;;;;;5052024;28;20052;-28
2022/04/26 16:51:32;;;;;;;5.50;1.77;;;10.80;64.10;;;;;;5042097;28;20068;-27
2022/04/26 16:53:58;;;;;;;4.95;1.65;;;10.60;75.30;;;;;;5042062;28;20469;-28
2022/04/26 16:56:24;;;;;;;5.90;2.25;;;10.40;84.70;;;;;;5033458;28;20045;-27
2022/04/26 16:58:50;;;;;;;4.55;1.85;;;10.30;99.90;;;;;;5041342;28;20095;-28
2022/04/26 17:01:16;;;;;;;5.85;1.92;;;10.20;99.90;;;;;;5040706;28;20049;-28
2022/04/26 17:03:41;;;;;;;5.32;1.83;;;10.30;99.90;;;;;;5032314;28;20053;-28
2022/04/26 17:06:07;;;;;;;6.32;1.80;;;10.30;99.90;;;;;;5033699;28;20396;-27
2022/04/26 17:08:33;;;;;;;8.35;2.10;;;10.40;99.90;;;;;;5042985;28;20520;-27
2022/04/26 17:13:45;;;;;;;6.70;1.85;;;12.00;99.90;;;;;;5034094;28;20049;-28
2022/04/26 17:16:12;;;;;;;7.20;2.30;;;12.80;56.70;;;;;;5032359;28;20476;-28
2022/04/26 17:18:41;;;;;;;4.45;1.60;;;13.40;1.00;;;;;;5047144;28;20500;-28
2022/04/26 17:21:08;;;;;;;5.95;1.92;;;13.80;1.00;;;;;;5051253;28;20057;-28
2022/04/26 17:23:34;;;;;;;6.80;1.80;;;13.90;1.00;;;;;;5051846;28;20056;-28
2022/04/26 17:26:00;;;;;;;3.92;2.10;;;14.10;1.00;;;;;;5052147;28;20102;-28
2022/04/26 17:28:26;;;;;;;4.65;1.80;;;14.30;1.00;;;;;;5045713;28;20053;-28
2022/04/26 17:30:52;;;;;;;7.28;1.70;;;14.40;1.00;;;;;;5035816;28;20045;-28
2022/04/26 17:33:18;;;;;;;6.35;2.40;;;14.20;1.00;;;;;;5047411;28;20041;-28